sensor_id;sensor_type;location;lat;lon;timestamp;P1;durP1;ratioP1;P2;durP2;ratioP2
74528;SDS011;63009;52.584;5.932;2024-02-23T00:00:29;2.35;;;0.50;;
74528;SDS011;63009;52.584;5.932;2024-02-23T00:02:54;2.85;;;0.57;;
74528;SDS011;63009;52.584;5.932;2024-02-23T00:05:22;3.67;;;0.70;;
74528;SDS011;63009;52.584;5.932;2024-02-23T00:07:47;2.90;;;0.65;;
74528;SDS011;63009;52.584;5.932;2024-02-23T00:10:13;2.97;;;1.03;;
74528;SDS011;63009;52.584;5.932;2024-02-23T00:12:38;4.45;;;1.10;;
74528;SDS011;63009;52.584;5.932;2024-02-23T00:15:04;3.35;;;1.20;;
74528;SDS011;63009;52.584;5.932;2024-02-23T00:17:29;4.00;;;1.20;;
74528;SDS011;63009;52.584;5.932;2024-02-23T00:19:55;3.50;;;1.23;;
74528;SDS011;63009;52.584;5.932;2024-02-23T00:22:20;8.13;;;2.47;;
74528;SDS011;63009;52.584;5.932;2024-02-23T00:24:45;5.85;;;1.25;;
74528;SDS011;63009;52.584;5.932;2024-02-23T00:27:11;2.03;;;1.00;;
74528;SDS011;63009;52.584;5.932;2024-02-23T00:29:37;1.80;;;0.70;;
74528;SDS011;63009;52.584;5.932;2024-02-23T00:32:03;1.70;;;0.95;;
74528;SDS011;63009;52.584;5.932;2024-02-23T00:34:28;2.50;;;0.63;;
74528;SDS011;63009;52.584;5.932;2024-02-23T00:36:56;4.72;;;1.48;;
74528;SDS011;63009;52.584;5.932;2024-02-23T00:39:22;4.80;;;1.10;;
74528;SDS011;63009;52.584;5.932;2024-02-23T00:41:48;4.47;;;1.10;;
74528;SDS011;63009;52.584;5.932;2024-02-23T00:44:13;4.20;;;1.20;;
74528;SDS011;63009;52.584;5.932;2024-02-23T00:46:39;3.50;;;1.05;;
74528;SDS011;63009;52.584;5.932;2024-02-23T00:49:05;5.93;;;1.02;;
74528;SDS011;63009;52.584;5.932;2024-02-23T00:51:30;8.88;;;1.40;;
74528;SDS011;63009;52.584;5.932;2024-02-23T00:53:56;6.70;;;1.40;;
74528;SDS011;63009;52.584;5.932;2024-02-23T00:56:21;7.15;;;1.50;;
74528;SDS011;63009;52.584;5.932;2024-02-23T00:58:46;4.68;;;1.50;;
74528;SDS011;63009;52.584;5.932;2024-02-23T01:01:12;6.60;;;1.40;;
74528;SDS011;63009;52.584;5.932;2024-02-23T01:03:37;8.32;;;1.58;;
74528;SDS011;63009;52.584;5.932;2024-02-23T01:06:03;9.40;;;1.60;;
74528;SDS011;63009;52.584;5.932;2024-02-23T01:08:28;9.65;;;1.65;;
74528;SDS011;63009;52.584;5.932;2024-02-23T01:10:53;12.25;;;2.38;;
74528;SDS011;63009;52.584;5.932;2024-02-23T01:13:19;8.13;;;1.58;;
74528;SDS011;63009;52.584;5.932;2024-02-23T01:15:44;11.40;;;1.90;;
74528;SDS011;63009;52.584;5.932;2024-02-23T01:18:10;13.00;;;2.25;;
74528;SDS011;63009;52.584;5.932;2024-02-23T01:20:35;15.88;;;2.67;;
74528;SDS011;63009;52.584;5.932;2024-02-23T01:23:01;7.95;;;1.67;;
74528;SDS011;63009;52.584;5.932;2024-02-23T01:25:26;8.85;;;1.90;;
74528;SDS011;63009;52.584;5.932;2024-02-23T01:27:52;7.43;;;1.65;;
74528;SDS011;63009;52.584;5.932;2024-02-23T01:30:17;8.30;;;1.77;;
74528;SDS011;63009;52.584;5.932;2024-02-23T01:32:44;8.73;;;1.85;;
74528;SDS011;63009;52.584;5.932;2024-02-23T01:35:09;10.65;;;1.48;;
74528;SDS011;63009;52.584;5.932;2024-02-23T01:37:35;8.82;;;1.83;;
74528;SDS011;63009;52.584;5.932;2024-02-23T01:40:00;10.50;;;1.55;;
74528;SDS011;63009;52.584;5.932;2024-02-23T01:42:26;9.88;;;1.80;;
74528;SDS011;63009;52.584;5.932;2024-02-23T01:44:51;8.80;;;1.52;;
74528;SDS011;63009;52.584;5.932;2024-02-23T01:47:17;8.35;;;1.48;;
74528;SDS011;63009;52.584;5.932;2024-02-23T01:49:44;9.10;;;1.88;;
74528;SDS011;63009;52.584;5.932;2024-02-23T01:52:11;12.20;;;1.50;;
74528;SDS011;63009;52.584;5.932;2024-02-23T01:54:38;10.48;;;1.85;;
74528;SDS011;63009;52.584;5.932;2024-02-23T01:57:04;12.23;;;2.03;;
74528;SDS011;63009;52.584;5.932;2024-02-23T01:59:30;9.15;;;1.70;;
74528;SDS011;63009;52.584;5.932;2024-02-23T02:01:55;6.25;;;1.50;;
74528;SDS011;63009;52.584;5.932;2024-02-23T02:04:21;9.77;;;1.57;;
74528;SDS011;63009;52.584;5.932;2024-02-23T02:06:46;5.93;;;2.00;;
74528;SDS011;63009;52.584;5.932;2024-02-23T02:09:12;8.75;;;1.60;;
74528;SDS011;63009;52.584;5.932;2024-02-23T02:11:45;7.90;;;1.48;;
74528;SDS011;63009;52.584;5.932;2024-02-23T02:14:14;11.05;;;1.48;;
74528;SDS011;63009;52.584;5.932;2024-02-23T02:16:39;7.93;;;1.02;;
74528;SDS011;63009;52.584;5.932;2024-02-23T02:19:05;7.93;;;1.30;;
74528;SDS011;63009;52.584;5.932;2024-02-23T02:21:33;8.02;;;1.35;;
74528;SDS011;63009;52.584;5.932;2024-02-23T02:23:59;6.25;;;1.40;;
74528;SDS011;63009;52.584;5.932;2024-02-23T02:26:25;4.57;;;0.90;;
74528;SDS011;63009;52.584;5.932;2024-02-23T02:28:50;5.45;;;1.30;;
74528;SDS011;63009;52.584;5.932;2024-02-23T02:31:15;7.80;;;1.45;;
74528;SDS011;63009;52.584;5.932;2024-02-23T02:33:41;8.15;;;1.27;;
74528;SDS011;63009;52.584;5.932;2024-02-23T02:36:06;4.25;;;0.95;;
74528;SDS011;63009;52.584;5.932;2024-02-23T02:38:32;7.72;;;1.30;;
74528;SDS011;63009;52.584;5.932;2024-02-23T02:41:00;10.40;;;1.67;;
74528;SDS011;63009;52.584;5.932;2024-02-23T02:43:26;8.23;;;1.13;;
74528;SDS011;63009;52.584;5.932;2024-02-23T02:45:52;7.25;;;1.13;;
74528;SDS011;63009;52.584;5.932;2024-02-23T02:48:17;7.15;;;1.50;;
74528;SDS011;63009;52.584;5.932;2024-02-23T02:50:42;10.87;;;1.63;;
74528;SDS011;63009;52.584;5.932;2024-02-23T02:53:08;7.10;;;1.33;;
74528;SDS011;63009;52.584;5.932;2024-02-23T02:55:35;6.97;;;1.40;;
74528;SDS011;63009;52.584;5.932;2024-02-23T02:58:00;6.88;;;1.67;;
74528;SDS011;63009;52.584;5.932;2024-02-23T03:00:26;10.40;;;1.75;;
74528;SDS011;63009;52.584;5.932;2024-02-23T03:02:52;9.70;;;1.60;;
74528;SDS011;63009;52.584;5.932;2024-02-23T03:05:18;7.90;;;1.27;;
74528;SDS011;63009;52.584;5.932;2024-02-23T03:07:43;6.60;;;1.80;;
74528;SDS011;63009;52.584;5.932;2024-02-23T03:10:09;4.57;;;1.17;;
74528;SDS011;63009;52.584;5.932;2024-02-23T03:12:34;6.95;;;1.42;;
74528;SDS011;63009;52.584;5.932;2024-02-23T03:15:00;5.18;;;0.90;;
74528;SDS011;63009;52.584;5.932;2024-02-23T03:17:27;10.20;;;1.20;;
74528;SDS011;63009;52.584;5.932;2024-02-23T03:19:53;7.25;;;1.30;;
74528;SDS011;63009;52.584;5.932;2024-02-23T03:22:18;4.68;;;0.90;;
74528;SDS011;63009;52.584;5.932;2024-02-23T03:24:43;7.63;;;1.42;;
74528;SDS011;63009;52.584;5.932;2024-02-23T03:27:09;4.82;;;0.90;;
74528;SDS011;63009;52.584;5.932;2024-02-23T03:29:34;9.30;;;1.30;;
74528;SDS011;63009;52.584;5.932;2024-02-23T03:32:00;3.03;;;0.98;;
74528;SDS011;63009;52.584;5.932;2024-02-23T03:34:26;5.45;;;0.98;;
74528;SDS011;63009;52.584;5.932;2024-02-23T03:36:51;7.32;;;1.33;;
74528;SDS011;63009;52.584;5.932;2024-02-23T03:39:17;5.78;;;1.00;;
74528;SDS011;63009;52.584;5.932;2024-02-23T03:41:42;8.07;;;1.50;;
74528;SDS011;63009;52.584;5.932;2024-02-23T03:44:08;8.68;;;1.30;;
74528;SDS011;63009;52.584;5.932;2024-02-23T03:46:33;7.57;;;1.27;;
74528;SDS011;63009;52.584;5.932;2024-02-23T03:48:59;6.15;;;1.30;;
74528;SDS011;63009;52.584;5.932;2024-02-23T03:51:25;6.70;;;1.80;;
74528;SDS011;63009;52.584;5.932;2024-02-23T03:53:50;6.55;;;1.48;;
74528;SDS011;63009;52.584;5.932;2024-02-23T03:56:16;8.48;;;1.60;;
74528;SDS011;63009;52.584;5.932;2024-02-23T03:58:41;7.75;;;1.80;;
74528;SDS011;63009;52.584;5.932;2024-02-23T04:01:07;7.22;;;1.90;;
74528;SDS011;63009;52.584;5.932;2024-02-23T04:03:32;9.02;;;2.60;;
74528;SDS011;63009;52.584;5.932;2024-02-23T04:05:57;9.18;;;2.50;;
74528;SDS011;63009;52.584;5.932;2024-02-23T04:08:23;10.00;;;2.60;;
74528;SDS011;63009;52.584;5.932;2024-02-23T04:10:48;10.70;;;2.55;;
74528;SDS011;63009;52.584;5.932;2024-02-23T04:13:13;10.37;;;2.30;;
74528;SDS011;63009;52.584;5.932;2024-02-23T04:15:39;13.50;;;2.90;;
74528;SDS011;63009;52.584;5.932;2024-02-23T04:18:05;8.52;;;2.33;;
74528;SDS011;63009;52.584;5.932;2024-02-23T04:20:31;10.90;;;2.75;;
74528;SDS011;63009;52.584;5.932;2024-02-23T04:22:57;8.00;;;2.20;;
74528;SDS011;63009;52.584;5.932;2024-02-23T04:25:22;10.50;;;2.70;;
74528;SDS011;63009;52.584;5.932;2024-02-23T04:27:48;9.40;;;2.35;;
74528;SDS011;63009;52.584;5.932;2024-02-23T04:30:13;9.50;;;2.78;;
74528;SDS011;63009;52.584;5.932;2024-02-23T04:32:38;9.52;;;3.15;;
74528;SDS011;63009;52.584;5.932;2024-02-23T04:35:04;11.43;;;3.42;;
74528;SDS011;63009;52.584;5.932;2024-02-23T04:37:30;10.10;;;2.83;;
74528;SDS011;63009;52.584;5.932;2024-02-23T04:39:55;11.43;;;3.20;;
74528;SDS011;63009;52.584;5.932;2024-02-23T04:42:21;15.57;;;3.22;;
74528;SDS011;63009;52.584;5.932;2024-02-23T04:44:46;9.73;;;3.00;;
74528;SDS011;63009;52.584;5.932;2024-02-23T04:47:11;17.27;;;4.50;;
74528;SDS011;63009;52.584;5.932;2024-02-23T04:49:37;12.63;;;3.67;;
74528;SDS011;63009;52.584;5.932;2024-02-23T04:52:02;12.55;;;3.85;;
74528;SDS011;63009;52.584;5.932;2024-02-23T04:54:30;10.30;;;3.95;;
74528;SDS011;63009;52.584;5.932;2024-02-23T04:56:55;12.65;;;3.67;;
74528;SDS011;63009;52.584;5.932;2024-02-23T04:59:20;9.30;;;3.10;;
74528;SDS011;63009;52.584;5.932;2024-02-23T05:01:46;14.57;;;3.70;;
74528;SDS011;63009;52.584;5.932;2024-02-23T05:04:12;10.52;;;3.40;;
74528;SDS011;63009;52.584;5.932;2024-02-23T05:06:37;8.05;;;2.60;;
74528;SDS011;63009;52.584;5.932;2024-02-23T05:09:02;11.02;;;3.30;;
74528;SDS011;63009;52.584;5.932;2024-02-23T05:11:28;10.13;;;3.13;;
74528;SDS011;63009;52.584;5.932;2024-02-23T05:13:53;9.18;;;2.70;;
74528;SDS011;63009;52.584;5.932;2024-02-23T05:16:18;11.13;;;3.25;;
74528;SDS011;63009;52.584;5.932;2024-02-23T05:18:44;10.53;;;3.30;;
74528;SDS011;63009;52.584;5.932;2024-02-23T05:21:11;9.80;;;3.58;;
74528;SDS011;63009;52.584;5.932;2024-02-23T05:23:37;11.07;;;3.35;;
74528;SDS011;63009;52.584;5.932;2024-02-23T05:26:02;10.60;;;3.45;;
74528;SDS011;63009;52.584;5.932;2024-02-23T05:28:28;9.90;;;2.75;;
74528;SDS011;63009;52.584;5.932;2024-02-23T05:30:54;11.03;;;4.10;;
74528;SDS011;63009;52.584;5.932;2024-02-23T05:33:20;10.55;;;3.38;;
74528;SDS011;63009;52.584;5.932;2024-02-23T05:35:46;13.18;;;3.78;;
74528;SDS011;63009;52.584;5.932;2024-02-23T05:38:14;11.80;;;3.45;;
74528;SDS011;63009;52.584;5.932;2024-02-23T05:40:39;13.45;;;3.47;;
74528;SDS011;63009;52.584;5.932;2024-02-23T05:43:05;13.25;;;4.10;;
74528;SDS011;63009;52.584;5.932;2024-02-23T05:45:33;9.45;;;3.83;;
74528;SDS011;63009;52.584;5.932;2024-02-23T05:47:58;12.57;;;3.78;;
74528;SDS011;63009;52.584;5.932;2024-02-23T05:50:24;9.80;;;3.70;;
74528;SDS011;63009;52.584;5.932;2024-02-23T05:52:49;8.70;;;3.65;;
74528;SDS011;63009;52.584;5.932;2024-02-23T05:55:15;9.75;;;3.30;;
74528;SDS011;63009;52.584;5.932;2024-02-23T05:57:40;11.43;;;3.10;;
74528;SDS011;63009;52.584;5.932;2024-02-23T06:00:06;10.73;;;3.65;;
74528;SDS011;63009;52.584;5.932;2024-02-23T06:02:32;11.32;;;3.80;;
74528;SDS011;63009;52.584;5.932;2024-02-23T06:04:58;9.65;;;3.45;;
74528;SDS011;63009;52.584;5.932;2024-02-23T06:07:23;8.45;;;3.30;;
74528;SDS011;63009;52.584;5.932;2024-02-23T06:09:54;9.73;;;3.42;;
74528;SDS011;63009;52.584;5.932;2024-02-23T06:12:20;9.52;;;2.97;;
74528;SDS011;63009;52.584;5.932;2024-02-23T06:14:46;12.20;;;3.35;;
74528;SDS011;63009;52.584;5.932;2024-02-23T06:17:14;9.20;;;2.95;;
74528;SDS011;63009;52.584;5.932;2024-02-23T06:19:39;12.70;;;3.72;;
74528;SDS011;63009;52.584;5.932;2024-02-23T06:22:07;7.65;;;2.95;;
74528;SDS011;63009;52.584;5.932;2024-02-23T06:24:35;11.32;;;3.22;;
74528;SDS011;63009;52.584;5.932;2024-02-23T06:27:00;9.07;;;3.30;;
74528;SDS011;63009;52.584;5.932;2024-02-23T06:29:28;14.68;;;3.42;;
74528;SDS011;63009;52.584;5.932;2024-02-23T06:31:54;9.85;;;3.38;;
74528;SDS011;63009;52.584;5.932;2024-02-23T06:34:19;11.63;;;3.47;;
74528;SDS011;63009;52.584;5.932;2024-02-23T06:36:57;9.10;;;3.23;;
74528;SDS011;63009;52.584;5.932;2024-02-23T06:39:31;9.43;;;3.42;;
74528;SDS011;63009;52.584;5.932;2024-02-23T06:41:57;10.32;;;3.05;;
74528;SDS011;63009;52.584;5.932;2024-02-23T06:44:25;11.02;;;3.72;;
74528;SDS011;63009;52.584;5.932;2024-02-23T06:46:50;9.02;;;3.10;;
74528;SDS011;63009;52.584;5.932;2024-02-23T06:49:16;13.93;;;3.73;;
74528;SDS011;63009;52.584;5.932;2024-02-23T06:51:42;12.48;;;3.08;;
74528;SDS011;63009;52.584;5.932;2024-02-23T06:54:07;7.88;;;2.92;;
74528;SDS011;63009;52.584;5.932;2024-02-23T06:56:33;11.07;;;3.22;;
74528;SDS011;63009;52.584;5.932;2024-02-23T06:58:59;13.38;;;3.10;;
74528;SDS011;63009;52.584;5.932;2024-02-23T07:01:24;7.95;;;3.10;;
74528;SDS011;63009;52.584;5.932;2024-02-23T07:03:49;14.80;;;2.83;;
74528;SDS011;63009;52.584;5.932;2024-02-23T07:06:16;8.93;;;2.72;;
74528;SDS011;63009;52.584;5.932;2024-02-23T07:08:43;7.18;;;2.55;;
74528;SDS011;63009;52.584;5.932;2024-02-23T07:11:09;11.57;;;3.00;;
74528;SDS011;63009;52.584;5.932;2024-02-23T07:13:37;8.75;;;2.33;;
74528;SDS011;63009;52.584;5.932;2024-02-23T07:16:08;8.10;;;2.50;;
74528;SDS011;63009;52.584;5.932;2024-02-23T07:18:33;7.87;;;2.37;;
74528;SDS011;63009;52.584;5.932;2024-02-23T07:20:59;8.38;;;2.25;;
74528;SDS011;63009;52.584;5.932;2024-02-23T07:23:24;7.53;;;2.20;;
74528;SDS011;63009;52.584;5.932;2024-02-23T07:25:49;7.50;;;2.17;;
74528;SDS011;63009;52.584;5.932;2024-02-23T07:28:18;8.82;;;2.30;;
74528;SDS011;63009;52.584;5.932;2024-02-23T07:30:44;6.97;;;1.58;;
74528;SDS011;63009;52.584;5.932;2024-02-23T07:33:12;7.95;;;2.08;;
74528;SDS011;63009;52.584;5.932;2024-02-23T07:35:37;7.03;;;2.42;;
74528;SDS011;63009;52.584;5.932;2024-02-23T07:38:03;7.65;;;2.03;;
74528;SDS011;63009;52.584;5.932;2024-02-23T07:40:29;7.53;;;1.70;;
74528;SDS011;63009;52.584;5.932;2024-02-23T07:42:56;8.07;;;2.45;;
74528;SDS011;63009;52.584;5.932;2024-02-23T07:45:22;7.53;;;1.80;;
74528;SDS011;63009;52.584;5.932;2024-02-23T07:47:47;5.72;;;1.60;;
74528;SDS011;63009;52.584;5.932;2024-02-23T07:50:12;6.93;;;1.65;;
74528;SDS011;63009;52.584;5.932;2024-02-23T07:52:38;7.00;;;2.05;;
74528;SDS011;63009;52.584;5.932;2024-02-23T07:55:03;5.90;;;1.65;;
74528;SDS011;63009;52.584;5.932;2024-02-23T07:57:30;5.55;;;1.90;;
74528;SDS011;63009;52.584;5.932;2024-02-23T07:59:56;5.65;;;1.42;;
74528;SDS011;63009;52.584;5.932;2024-02-23T08:02:21;8.25;;;2.35;;
74528;SDS011;63009;52.584;5.932;2024-02-23T08:04:47;8.40;;;2.00;;
74528;SDS011;63009;52.584;5.932;2024-02-23T08:07:13;7.45;;;1.90;;
74528;SDS011;63009;52.584;5.932;2024-02-23T08:09:39;6.80;;;1.63;;
74528;SDS011;63009;52.584;5.932;2024-02-23T08:12:07;9.32;;;1.80;;
74528;SDS011;63009;52.584;5.932;2024-02-23T08:14:33;6.40;;;1.85;;
74528;SDS011;63009;52.584;5.932;2024-02-23T08:16:58;7.20;;;1.80;;
74528;SDS011;63009;52.584;5.932;2024-02-23T08:19:24;8.05;;;1.65;;
74528;SDS011;63009;52.584;5.932;2024-02-23T08:21:57;9.85;;;2.20;;
74528;SDS011;63009;52.584;5.932;2024-02-23T08:24:22;5.63;;;1.88;;
74528;SDS011;63009;52.584;5.932;2024-02-23T08:26:51;6.10;;;1.90;;
74528;SDS011;63009;52.584;5.932;2024-02-23T08:29:16;8.40;;;1.98;;
74528;SDS011;63009;52.584;5.932;2024-02-23T08:31:42;5.80;;;1.80;;
74528;SDS011;63009;52.584;5.932;2024-02-23T08:34:07;10.27;;;2.17;;
74528;SDS011;63009;52.584;5.932;2024-02-23T08:36:32;5.70;;;1.70;;
74528;SDS011;63009;52.584;5.932;2024-02-23T08:38:58;5.72;;;1.55;;
74528;SDS011;63009;52.584;5.932;2024-02-23T08:41:23;9.10;;;1.98;;
74528;SDS011;63009;52.584;5.932;2024-02-23T08:43:49;7.25;;;2.08;;
74528;SDS011;63009;52.584;5.932;2024-02-23T08:46:16;8.27;;;1.80;;
74528;SDS011;63009;52.584;5.932;2024-02-23T08:48:44;9.82;;;1.67;;
74528;SDS011;63009;52.584;5.932;2024-02-23T08:51:11;5.88;;;1.10;;
74528;SDS011;63009;52.584;5.932;2024-02-23T08:53:37;8.02;;;1.88;;
74528;SDS011;63009;52.584;5.932;2024-02-23T08:56:02;8.88;;;1.63;;
74528;SDS011;63009;52.584;5.932;2024-02-23T08:58:28;5.20;;;1.48;;
74528;SDS011;63009;52.584;5.932;2024-02-23T09:00:53;7.88;;;1.73;;
74528;SDS011;63009;52.584;5.932;2024-02-23T09:03:19;7.85;;;1.45;;
74528;SDS011;63009;52.584;5.932;2024-02-23T09:05:44;5.47;;;1.45;;
74528;SDS011;63009;52.584;5.932;2024-02-23T09:08:12;7.15;;;1.38;;
74528;SDS011;63009;52.584;5.932;2024-02-23T09:10:40;7.93;;;1.60;;
74528;SDS011;63009;52.584;5.932;2024-02-23T09:13:40;9.00;;;1.60;;
74528;SDS011;63009;52.584;5.932;2024-02-23T09:16:10;4.95;;;1.20;;
74528;SDS011;63009;52.584;5.932;2024-02-23T09:19:19;5.25;;;1.65;;
74528;SDS011;63009;52.584;5.932;2024-02-23T09:21:48;6.82;;;1.83;;
74528;SDS011;63009;52.584;5.932;2024-02-23T09:24:47;9.20;;;1.83;;
74528;SDS011;63009;52.584;5.932;2024-02-23T09:27:16;6.95;;;1.77;;
74528;SDS011;63009;52.584;5.932;2024-02-23T09:29:42;4.88;;;1.27;;
74528;SDS011;63009;52.584;5.932;2024-02-23T09:32:07;5.43;;;1.35;;
74528;SDS011;63009;52.584;5.932;2024-02-23T09:34:33;7.85;;;1.70;;
74528;SDS011;63009;52.584;5.932;2024-02-23T09:37:01;7.22;;;2.03;;
74528;SDS011;63009;52.584;5.932;2024-02-23T09:39:27;7.47;;;2.38;;
74528;SDS011;63009;52.584;5.932;2024-02-23T09:41:55;7.10;;;1.25;;
74528;SDS011;63009;52.584;5.932;2024-02-23T09:44:21;8.07;;;1.80;;
74528;SDS011;63009;52.584;5.932;2024-02-23T09:46:47;4.05;;;1.20;;
74528;SDS011;63009;52.584;5.932;2024-02-23T09:49:14;10.77;;;1.95;;
74528;SDS011;63009;52.584;5.932;2024-02-23T09:51:40;7.78;;;1.45;;
74528;SDS011;63009;52.584;5.932;2024-02-23T09:54:06;7.40;;;1.30;;
74528;SDS011;63009;52.584;5.932;2024-02-23T09:56:32;6.15;;;1.35;;
74528;SDS011;63009;52.584;5.932;2024-02-23T09:59:02;7.95;;;1.25;;
74528;SDS011;63009;52.584;5.932;2024-02-23T10:01:31;4.78;;;1.20;;
74528;SDS011;63009;52.584;5.932;2024-02-23T10:03:58;6.97;;;1.45;;
74528;SDS011;63009;52.584;5.932;2024-02-23T10:06:28;6.50;;;1.42;;
74528;SDS011;63009;52.584;5.932;2024-02-23T10:08:53;6.55;;;1.67;;
74528;SDS011;63009;52.584;5.932;2024-02-23T10:11:22;5.80;;;1.15;;
74528;SDS011;63009;52.584;5.932;2024-02-23T10:13:51;6.28;;;1.42;;
74528;SDS011;63009;52.584;5.932;2024-02-23T10:16:17;6.38;;;1.60;;
74528;SDS011;63009;52.584;5.932;2024-02-23T10:18:45;6.30;;;1.45;;
74528;SDS011;63009;52.584;5.932;2024-02-23T10:21:11;6.13;;;1.55;;
74528;SDS011;63009;52.584;5.932;2024-02-23T10:23:37;3.88;;;1.15;;
74528;SDS011;63009;52.584;5.932;2024-02-23T10:26:04;6.13;;;1.50;;
74528;SDS011;63009;52.584;5.932;2024-02-23T10:28:30;6.85;;;1.50;;
74528;SDS011;63009;52.584;5.932;2024-02-23T10:30:56;7.15;;;1.63;;
74528;SDS011;63009;52.584;5.932;2024-02-23T10:33:22;7.60;;;1.60;;
74528;SDS011;63009;52.584;5.932;2024-02-23T10:35:55;3.92;;;1.67;;
74528;SDS011;63009;52.584;5.932;2024-02-23T10:38:22;10.80;;;2.15;;
74528;SDS011;63009;52.584;5.932;2024-02-23T10:40:48;7.43;;;1.40;;
74528;SDS011;63009;52.584;5.932;2024-02-23T10:43:16;6.95;;;1.20;;
74528;SDS011;63009;52.584;5.932;2024-02-23T10:45:46;10.23;;;1.83;;
74528;SDS011;63009;52.584;5.932;2024-02-23T10:48:12;11.18;;;1.95;;
74528;SDS011;63009;52.584;5.932;2024-02-23T10:50:39;6.05;;;1.40;;
74528;SDS011;63009;52.584;5.932;2024-02-23T10:53:07;8.20;;;1.25;;
74528;SDS011;63009;52.584;5.932;2024-02-23T10:55:33;7.18;;;1.67;;
74528;SDS011;63009;52.584;5.932;2024-02-23T10:58:02;10.23;;;2.08;;
74528;SDS011;63009;52.584;5.932;2024-02-23T11:00:30;10.02;;;1.58;;
74528;SDS011;63009;52.584;5.932;2024-02-23T11:02:56;5.90;;;1.20;;
74528;SDS011;63009;52.584;5.932;2024-02-23T11:05:22;6.70;;;1.60;;
74528;SDS011;63009;52.584;5.932;2024-02-23T11:07:48;7.43;;;1.50;;
74528;SDS011;63009;52.584;5.932;2024-02-23T11:10:14;4.38;;;1.33;;
74528;SDS011;63009;52.584;5.932;2024-02-23T11:12:40;4.53;;;1.33;;
74528;SDS011;63009;52.584;5.932;2024-02-23T11:15:06;6.43;;;1.40;;
74528;SDS011;63009;52.584;5.932;2024-02-23T11:17:32;8.90;;;1.52;;
74528;SDS011;63009;52.584;5.932;2024-02-23T11:20:02;9.63;;;2.15;;
74528;SDS011;63009;52.584;5.932;2024-02-23T11:22:32;6.28;;;1.30;;
74528;SDS011;63009;52.584;5.932;2024-02-23T11:25:00;4.40;;;1.30;;
74528;SDS011;63009;52.584;5.932;2024-02-23T11:30:03;7.78;;;1.92;;
74528;SDS011;63009;52.584;5.932;2024-02-23T11:32:37;5.93;;;1.55;;
74528;SDS011;63009;52.584;5.932;2024-02-23T11:35:05;6.07;;;1.80;;
74528;SDS011;63009;52.584;5.932;2024-02-23T11:37:32;6.43;;;1.70;;
74528;SDS011;63009;52.584;5.932;2024-02-23T11:39:58;5.07;;;1.52;;
74528;SDS011;63009;52.584;5.932;2024-02-23T11:42:27;6.18;;;1.35;;
74528;SDS011;63009;52.584;5.932;2024-02-23T11:44:52;4.72;;;1.38;;
74528;SDS011;63009;52.584;5.932;2024-02-23T11:47:19;6.07;;;2.13;;
74528;SDS011;63009;52.584;5.932;2024-02-23T11:49:44;6.88;;;1.80;;
74528;SDS011;63009;52.584;5.932;2024-02-23T11:52:09;5.00;;;1.45;;
74528;SDS011;63009;52.584;5.932;2024-02-23T11:54:35;10.93;;;2.30;;
74528;SDS011;63009;52.584;5.932;2024-02-23T11:57:01;5.63;;;1.63;;
74528;SDS011;63009;52.584;5.932;2024-02-23T11:59:26;5.35;;;1.60;;
74528;SDS011;63009;52.584;5.932;2024-02-23T12:01:52;7.25;;;1.67;;
74528;SDS011;63009;52.584;5.932;2024-02-23T12:04:17;8.10;;;1.73;;
74528;SDS011;63009;52.584;5.932;2024-02-23T12:06:42;7.18;;;2.00;;
74528;SDS011;63009;52.584;5.932;2024-02-23T12:09:08;5.38;;;1.58;;
74528;SDS011;63009;52.584;5.932;2024-02-23T12:11:34;6.93;;;1.50;;
74528;SDS011;63009;52.584;5.932;2024-02-23T12:14:00;5.95;;;2.13;;
74528;SDS011;63009;52.584;5.932;2024-02-23T12:16:33;7.18;;;1.80;;
74528;SDS011;63009;52.584;5.932;2024-02-23T12:19:00;8.52;;;2.05;;
74528;SDS011;63009;52.584;5.932;2024-02-23T12:21:26;7.53;;;1.77;;
74528;SDS011;63009;52.584;5.932;2024-02-23T12:23:51;6.78;;;2.00;;
74528;SDS011;63009;52.584;5.932;2024-02-23T12:26:18;7.35;;;1.67;;
74528;SDS011;63009;52.584;5.932;2024-02-23T12:28:44;6.78;;;2.15;;
74528;SDS011;63009;52.584;5.932;2024-02-23T12:31:10;9.65;;;1.92;;
74528;SDS011;63009;52.584;5.932;2024-02-23T12:33:40;6.80;;;1.55;;
74528;SDS011;63009;52.584;5.932;2024-02-23T12:36:06;6.45;;;1.92;;
74528;SDS011;63009;52.584;5.932;2024-02-23T12:38:32;7.45;;;2.33;;
74528;SDS011;63009;52.584;5.932;2024-02-23T12:40:59;6.68;;;1.70;;
74528;SDS011;63009;52.584;5.932;2024-02-23T12:43:25;6.13;;;1.70;;
74528;SDS011;63009;52.584;5.932;2024-02-23T12:45:54;7.75;;;2.30;;
74528;SDS011;63009;52.584;5.932;2024-02-23T12:48:20;9.32;;;1.80;;
74528;SDS011;63009;52.584;5.932;2024-02-23T12:50:46;4.78;;;1.77;;
74528;SDS011;63009;52.584;5.932;2024-02-23T12:56:04;6.65;;;1.65;;
74528;SDS011;63009;52.584;5.932;2024-02-23T12:58:32;6.57;;;1.90;;
74528;SDS011;63009;52.584;5.932;2024-02-23T13:00:59;8.25;;;2.80;;
74528;SDS011;63009;52.584;5.932;2024-02-23T13:03:25;6.65;;;1.88;;
74528;SDS011;63009;52.584;5.932;2024-02-23T13:05:51;8.40;;;3.22;;
74528;SDS011;63009;52.584;5.932;2024-02-23T13:08:18;5.47;;;1.65;;
74528;SDS011;63009;52.584;5.932;2024-02-23T13:10:43;6.38;;;1.88;;
74528;SDS011;63009;52.584;5.932;2024-02-23T13:13:09;7.32;;;1.98;;
74528;SDS011;63009;52.584;5.932;2024-02-23T13:15:34;7.47;;;1.98;;
74528;SDS011;63009;52.584;5.932;2024-02-23T13:18:02;6.50;;;1.80;;
74528;SDS011;63009;52.584;5.932;2024-02-23T13:20:28;6.38;;;1.95;;
74528;SDS011;63009;52.584;5.932;2024-02-23T13:22:54;7.15;;;2.03;;
74528;SDS011;63009;52.584;5.932;2024-02-23T13:25:19;5.63;;;2.00;;
74528;SDS011;63009;52.584;5.932;2024-02-23T13:27:44;10.52;;;2.00;;
74528;SDS011;63009;52.584;5.932;2024-02-23T13:30:10;5.93;;;2.00;;
74528;SDS011;63009;52.584;5.932;2024-02-23T13:32:36;9.32;;;2.15;;
74528;SDS011;63009;52.584;5.932;2024-02-23T13:35:01;7.00;;;2.10;;
74528;SDS011;63009;52.584;5.932;2024-02-23T13:37:29;6.05;;;2.17;;
74528;SDS011;63009;52.584;5.932;2024-02-23T13:39:54;7.80;;;1.98;;
74528;SDS011;63009;52.584;5.932;2024-02-23T13:42:20;6.03;;;1.77;;
74528;SDS011;63009;52.584;5.932;2024-02-23T13:44:45;6.68;;;1.80;;
74528;SDS011;63009;52.584;5.932;2024-02-23T13:47:12;7.07;;;1.88;;
74528;SDS011;63009;52.584;5.932;2024-02-23T13:49:37;6.78;;;2.10;;
74528;SDS011;63009;52.584;5.932;2024-02-23T13:52:05;4.68;;;1.45;;
74528;SDS011;63009;52.584;5.932;2024-02-23T13:54:30;7.78;;;1.75;;
74528;SDS011;63009;52.584;5.932;2024-02-23T13:56:56;5.50;;;2.10;;
74528;SDS011;63009;52.584;5.932;2024-02-23T13:59:21;6.30;;;1.63;;
74528;SDS011;63009;52.584;5.932;2024-02-23T14:01:46;9.75;;;2.10;;
74528;SDS011;63009;52.584;5.932;2024-02-23T14:04:12;7.78;;;1.70;;
74528;SDS011;63009;52.584;5.932;2024-02-23T14:06:37;7.38;;;1.42;;
74528;SDS011;63009;52.584;5.932;2024-02-23T14:09:02;9.63;;;2.08;;
74528;SDS011;63009;52.584;5.932;2024-02-23T14:11:29;5.45;;;1.83;;
74528;SDS011;63009;52.584;5.932;2024-02-23T14:13:55;5.75;;;1.60;;
74528;SDS011;63009;52.584;5.932;2024-02-23T14:16:21;5.43;;;1.50;;
74528;SDS011;63009;52.584;5.932;2024-02-23T14:18:48;6.97;;;1.50;;
74528;SDS011;63009;52.584;5.932;2024-02-23T14:21:14;4.78;;;1.60;;
74528;SDS011;63009;52.584;5.932;2024-02-23T14:23:40;7.70;;;2.03;;
74528;SDS011;63009;52.584;5.932;2024-02-23T14:26:05;4.80;;;1.65;;
74528;SDS011;63009;52.584;5.932;2024-02-23T14:28:31;7.50;;;1.90;;
74528;SDS011;63009;52.584;5.932;2024-02-23T14:30:56;9.30;;;2.10;;
74528;SDS011;63009;52.584;5.932;2024-02-23T14:33:21;7.80;;;1.90;;
74528;SDS011;63009;52.584;5.932;2024-02-23T14:35:47;5.78;;;1.60;;
74528;SDS011;63009;52.584;5.932;2024-02-23T14:38:14;5.55;;;1.80;;
74528;SDS011;63009;52.584;5.932;2024-02-23T14:40:40;6.45;;;1.48;;
74528;SDS011;63009;52.584;5.932;2024-02-23T14:43:06;5.95;;;1.67;;
74528;SDS011;63009;52.584;5.932;2024-02-23T14:45:31;6.13;;;1.63;;